Terminal Aerodrome Forecast
Issued by NWS Northern Indiana

Home | Current Version | Previous Version | Text Only | Print | Product List | Glossary Off
Versions: 1 2 3 4 5 6 7 8 9 10 11 12 13 14 15 16

000
FTUS43 KIWX 020500
TAFFWA
TAF
KFWA 020540Z 0206/0306 26012KT P6SM SCT250
     FM021800 27006KT P6SM BKN030
     FM030000 15003KT P6SM OVC100=

USA.gov is the U.S. government's official web portal to all federal, state and local government web resources and services.